Time;durP1;ratioP1;P1;durP2;ratioP2;P2;SDS_P1;SDS_P2;PMS_P1;PMS_P2;Temp;Humidity;BMP_temperature;BMP_pressure;BME280_temperature;BME280_humidity;BME280_pressure;Samples;Min_cycle;Max_cycle;Signal;HPM_P1;HPM_P2
2021/07/11 00:01:12;;;;;;;21.27;16.38;;;16.60;99.90;;;;;;4971164;28;20209;-86
2021/07/11 00:03:39;;;;;;;19.73;16.57;;;16.60;99.90;;;;;;4971074;28;20247;-85
2021/07/11 00:06:06;;;;;;;19.83;15.93;;;16.60;99.90;;;;;;4981450;28;20225;-87
2021/07/11 00:08:34;;;;;;;19.33;16.63;;;16.60;99.90;;;;;;4977244;28;20216;-87
2021/07/11 00:11:01;;;;;;;17.63;14.10;;;16.60;99.90;;;;;;4971961;28;20911;-87
2021/07/11 00:13:28;;;;;;;16.13;13.68;;;16.60;99.90;;;;;;4972633;28;20220;-87
2021/07/11 00:15:55;;;;;;;13.65;11.95;;;16.60;99.90;;;;;;4985044;28;20204;-85
2021/07/11 00:18:21;;;;;;;12.97;10.97;;;16.50;99.90;;;;;;4988653;28;20203;-84
2021/07/11 00:20:48;;;;;;;15.70;13.87;;;16.50;99.90;;;;;;4972179;28;20197;-87
2021/07/11 00:23:15;;;;;;;19.20;16.33;;;16.50;99.90;;;;;;4972146;28;20208;-85
2021/07/11 00:25:43;;;;;;;18.17;14.82;;;16.40;99.90;;;;;;4972008;28;20224;-85
2021/07/11 00:28:10;;;;;;;16.90;13.83;;;16.40;99.90;;;;;;4972110;28;20212;-86
2021/07/11 00:30:37;;;;;;;17.65;12.90;;;16.40;99.90;;;;;;4970833;28;20216;-85
2021/07/11 00:33:04;;;;;;;14.52;12.85;;;16.40;99.90;;;;;;4971504;28;20223;-86
2021/07/11 00:35:31;;;;;;;17.60;15.13;;;16.40;99.90;;;;;;4981277;28;20619;-87
2021/07/11 00:37:58;;;;;;;16.90;14.47;;;16.40;99.90;;;;;;4991916;28;20216;-89
2021/07/11 00:40:24;;;;;;;18.13;15.10;;;16.40;99.90;;;;;;4991548;28;20207;-87
2021/07/11 00:42:53;;;;;;;16.67;13.70;;;16.40;99.90;;;;;;4991119;28;20208;-86
2021/07/11 00:45:20;;;;;;;20.07;15.80;;;16.40;99.90;;;;;;4991337;28;20262;-87
2021/07/11 00:47:46;;;;;;;18.37;15.97;;;16.40;99.90;;;;;;4991002;28;20219;-87
2021/07/11 00:50:17;;;;;;;18.13;15.10;;;16.40;99.90;;;;;;4973496;28;20227;-87
2021/07/11 00:52:44;;;;;;;17.13;14.37;;;16.40;99.90;;;;;;4971664;28;20193;-87
2021/07/11 00:55:12;;;;;;;19.37;16.83;;;16.30;99.90;;;;;;4977948;28;20208;-88
2021/07/11 00:57:39;;;;;;;18.37;15.73;;;16.40;99.90;;;;;;4990187;28;20208;-88
2021/07/11 01:00:11;;;;;;;18.27;15.13;;;16.40;99.90;;;;;;4990036;28;20203;-86
2021/07/11 01:02:48;;;;;;;14.67;12.83;;;16.40;99.90;;;;;;4990141;28;20479;-86
2021/07/11 01:05:16;;;;;;;17.07;14.83;;;16.30;99.90;;;;;;4990523;28;20200;-87
2021/07/11 01:07:47;;;;;;;15.43;13.60;;;16.30;99.90;;;;;;4978313;28;20204;-86
2021/07/11 01:10:19;;;;;;;17.67;13.93;;;16.30;99.90;;;;;;4970687;28;20225;-87
2021/07/11 01:12:48;;;;;;;19.87;14.53;;;16.30;99.90;;;;;;4970780;28;20216;-87
2021/07/11 01:15:17;;;;;;;19.03;15.30;;;16.30;99.90;;;;;;4977509;28;20238;-81
2021/07/11 01:17:44;;;;;;;15.17;13.37;;;16.30;99.90;;;;;;4988995;28;20206;-86
2021/07/11 01:20:26;;;;;;;14.67;12.83;;;16.30;99.90;;;;;;4972305;28;20212;-83
2021/07/11 01:22:56;;;;;;;14.13;11.40;;;16.30;99.90;;;;;;4965475;28;20211;-84
2021/07/11 01:25:34;;;;;;;17.03;12.97;;;16.30;99.90;;;;;;4966179;28;20209;-81
2021/07/11 01:28:02;;;;;;;13.63;11.40;;;16.30;99.90;;;;;;4965367;28;20231;-82
2021/07/11 01:30:30;;;;;;;14.03;11.77;;;16.30;99.90;;;;;;4966292;28;20544;-85
2021/07/11 01:32:57;;;;;;;13.87;11.67;;;16.20;99.90;;;;;;4965415;28;20196;-83
2021/07/11 01:35:24;;;;;;;14.87;11.73;;;16.30;99.90;;;;;;4964471;28;20204;-83
2021/07/11 01:37:53;;;;;;;14.20;12.10;;;16.20;99.90;;;;;;4965210;28;20204;-84
2021/07/11 01:40:20;;;;;;;17.47;14.07;;;16.20;99.90;;;;;;4965469;28;20619;-86
2021/07/11 01:42:50;;;;;;;12.93;10.63;;;16.20;99.90;;;;;;4965663;28;20212;-84
2021/07/11 01:45:17;;;;;;;11.63;10.05;;;16.20;99.90;;;;;;4966653;28;20232;-82
2021/07/11 01:47:44;;;;;;;10.30;9.20;;;16.20;99.90;;;;;;4967712;28;20220;-83
2021/07/11 01:50:13;;;;;;;10.40;9.40;;;16.20;99.90;;;;;;4975802;28;20208;-83
2021/07/11 01:52:40;;;;;;;10.30;9.18;;;16.20;99.90;;;;;;4990162;28;20211;-84
2021/07/11 01:55:09;;;;;;;10.83;9.73;;;16.20;99.90;;;;;;4988737;28;20223;-82
2021/07/11 01:57:37;;;;;;;9.48;8.13;;;16.10;99.90;;;;;;4990313;28;20288;-83
2021/07/11 02:00:07;;;;;;;12.13;10.43;;;16.10;99.90;;;;;;4984969;28;20208;-83
2021/07/11 02:02:34;;;;;;;11.97;9.53;;;16.10;99.90;;;;;;4970886;28;20211;-83
2021/07/11 02:05:04;;;;;;;11.33;9.70;;;16.10;99.90;;;;;;4970499;28;20213;-85
2021/07/11 02:07:30;;;;;;;11.60;10.20;;;16.10;99.90;;;;;;4970988;28;20232;-87
2021/07/11 02:09:57;;;;;;;12.87;10.87;;;16.10;99.90;;;;;;4970044;28;20207;-82
2021/07/11 02:12:25;;;;;;;11.30;10.07;;;16.10;99.90;;;;;;4987938;28;20507;-85
2021/07/11 02:14:54;;;;;;;14.00;11.33;;;16.10;99.90;;;;;;4991233;28;20208;-84
2021/07/11 02:17:27;;;;;;;11.30;9.30;;;16.10;99.90;;;;;;4990088;28;20262;-85
2021/07/11 02:19:55;;;;;;;12.30;11.00;;;16.10;99.90;;;;;;4990025;28;20200;-82
2021/07/11 02:22:22;;;;;;;11.53;10.33;;;16.10;99.90;;;;;;4990691;28;20204;-83
2021/07/11 02:24:50;;;;;;;12.03;10.33;;;16.00;99.90;;;;;;4990329;28;20204;-85
2021/07/11 02:27:19;;;;;;;13.03;11.67;;;16.00;99.90;;;;;;4990030;28;20267;-86
2021/07/11 02:29:50;;;;;;;13.30;10.93;;;16.00;99.90;;;;;;4970443;28;20224;-85
2021/07/11 02:32:18;;;;;;;11.57;9.37;;;16.00;99.90;;;;;;4967988;28;20212;-83
2021/07/11 02:34:47;;;;;;;13.97;12.57;;;16.00;99.90;;;;;;4968170;28;20867;-82
2021/07/11 02:37:18;;;;;;;10.15;9.05;;;16.10;99.90;;;;;;4969640;28;20212;-83
2021/07/11 02:39:47;;;;;;;9.63;8.63;;;16.10;99.90;;;;;;4972510;28;20189;-85
2021/07/11 02:42:15;;;;;;;13.07;9.53;;;16.00;99.90;;;;;;4972854;28;20201;-83
2021/07/11 02:44:47;;;;;;;11.70;9.50;;;16.00;99.90;;;;;;4972545;28;20244;-84
2021/07/11 02:47:17;;;;;;;9.90;8.90;;;16.00;99.90;;;;;;4971901;28;20860;-83
2021/07/11 02:49:49;;;;;;;11.45;9.80;;;16.00;99.90;;;;;;4989434;28;20204;-84
2021/07/11 02:52:18;;;;;;;12.63;10.17;;;16.00;99.90;;;;;;4990780;28;20208;-83
2021/07/11 02:54:51;;;;;;;10.43;9.17;;;16.00;99.90;;;;;;4991598;28;20200;-84
2021/07/11 02:57:22;;;;;;;10.00;9.00;;;16.00;99.90;;;;;;4990523;28;20215;-84
2021/07/11 02:59:50;;;;;;;9.43;8.43;;;16.00;99.90;;;;;;4971588;28;20208;-85
2021/07/11 03:02:18;;;;;;;9.23;8.33;;;16.00;99.90;;;;;;4971744;28;20208;-84
2021/07/11 03:04:46;;;;;;;9.73;8.43;;;16.00;99.90;;;;;;4972793;28;20213;-85
2021/07/11 03:07:13;;;;;;;10.13;8.63;;;15.90;99.90;;;;;;4970417;28;20290;-84
2021/07/11 03:09:41;;;;;;;11.43;8.80;;;15.90;99.90;;;;;;4972433;28;20208;-85
2021/07/11 03:12:08;;;;;;;11.63;8.77;;;15.90;99.90;;;;;;4972414;28;20208;-84
2021/07/11 03:14:36;;;;;;;11.33;10.17;;;15.90;99.90;;;;;;4973035;28;20220;-85
2021/07/11 03:17:04;;;;;;;14.60;11.90;;;15.90;99.90;;;;;;4972947;28;20212;-86
2021/07/11 03:19:37;;;;;;;13.07;11.37;;;15.80;99.90;;;;;;4971818;28;20235;-84
2021/07/11 03:22:07;;;;;;;11.40;10.23;;;15.80;99.90;;;;;;4972285;28;20208;-86
2021/07/11 03:24:36;;;;;;;11.07;9.87;;;15.80;99.90;;;;;;4972528;28;20208;-85
2021/07/11 03:27:04;;;;;;;10.27;9.17;;;15.80;99.90;;;;;;4971271;28;20225;-85
2021/07/11 03:29:36;;;;;;;16.00;13.23;;;15.80;99.90;;;;;;4972312;28;20213;-85
2021/07/11 03:32:04;;;;;;;18.13;14.37;;;15.80;99.90;;;;;;4972258;28;20707;-85
2021/07/11 03:34:33;;;;;;;14.90;13.10;;;15.80;99.90;;;;;;4972446;28;20604;-85
2021/07/11 03:37:07;;;;;;;16.50;12.93;;;15.80;99.90;;;;;;4972610;28;20204;-87
2021/07/11 03:39:38;;;;;;;15.27;12.45;;;15.80;99.90;;;;;;4973186;28;20227;-84
2021/07/11 03:42:08;;;;;;;16.23;13.33;;;15.90;99.90;;;;;;4976469;28;20208;-86
2021/07/11 03:44:36;;;;;;;16.30;13.80;;;15.90;99.90;;;;;;4991546;28;20263;-84
2021/07/11 03:47:07;;;;;;;13.88;12.40;;;15.90;99.90;;;;;;4981499;28;20243;-87
2021/07/11 03:49:34;;;;;;;16.75;14.95;;;16.00;99.90;;;;;;4971876;28;20212;-84
2021/07/11 03:52:05;;;;;;;13.38;11.98;;;16.00;99.90;;;;;;4971159;28;20263;-86
2021/07/11 03:54:37;;;;;;;16.48;13.93;;;16.00;99.90;;;;;;4972238;28;20236;-87
2021/07/11 03:57:06;;;;;;;16.05;14.18;;;16.10;99.90;;;;;;4972646;28;20197;-84
2021/07/11 03:59:33;;;;;;;17.37;14.00;;;16.10;99.90;;;;;;4973581;28;20223;-91
2021/07/11 04:02:02;;;;;;;14.87;12.90;;;16.20;99.90;;;;;;4972918;28;20962;-87
2021/07/11 04:04:32;;;;;;;17.07;14.03;;;16.20;99.90;;;;;;4971702;28;20215;-86
2021/07/11 04:07:00;;;;;;;16.88;12.70;;;16.30;99.90;;;;;;4972367;28;20220;-85
2021/07/11 04:09:28;;;;;;;14.50;13.00;;;16.30;99.90;;;;;;4972760;28;20216;-83
2021/07/11 04:11:57;;;;;;;14.98;13.07;;;16.30;99.90;;;;;;4971808;28;20209;-86
2021/07/11 04:14:24;;;;;;;16.05;13.68;;;16.40;99.90;;;;;;4972853;28;20209;-85
2021/07/11 04:16:55;;;;;;;15.55;13.95;;;16.40;99.90;;;;;;4972286;28;20212;-84
2021/07/11 04:19:25;;;;;;;15.43;13.03;;;16.50;99.90;;;;;;4980772;28;20268;-86
2021/07/11 04:21:53;;;;;;;14.30;11.77;;;16.50;99.90;;;;;;4990764;28;20239;-86
2021/07/11 04:24:21;;;;;;;13.53;12.13;;;16.50;99.90;;;;;;4987240;28;20208;-84
2021/07/11 04:26:49;;;;;;;17.50;13.63;;;16.50;99.90;;;;;;4972044;28;20239;-87
2021/07/11 04:29:18;;;;;;;13.50;11.87;;;16.50;99.90;;;;;;4971341;28;20582;-85
2021/07/11 04:31:45;;;;;;;14.30;12.65;;;16.50;99.90;;;;;;4971401;28;20582;-85
2021/07/11 04:34:24;;;;;;;14.10;11.73;;;16.50;99.90;;;;;;4971229;28;20212;-85
2021/07/11 04:36:51;;;;;;;14.35;12.82;;;16.50;99.90;;;;;;4971049;28;20656;-83
2021/07/11 04:39:18;;;;;;;15.63;13.13;;;16.50;99.90;;;;;;4970504;28;20197;-87
2021/07/11 04:41:45;;;;;;;16.17;12.73;;;16.60;99.90;;;;;;4971887;28;20230;-85
2021/07/11 04:44:12;;;;;;;15.25;12.15;;;16.60;99.90;;;;;;4970591;28;20245;-84
2021/07/11 04:46:40;;;;;;;13.52;12.00;;;16.60;99.90;;;;;;4969912;28;20319;-84
2021/07/11 04:49:07;;;;;;;16.67;12.55;;;16.60;99.90;;;;;;4970686;28;20219;-84
2021/07/11 04:51:34;;;;;;;22.73;14.88;;;16.60;99.90;;;;;;4981752;28;20219;-87
2021/07/11 04:54:03;;;;;;;15.00;12.70;;;16.70;99.90;;;;;;4989759;28;20192;-85
2021/07/11 04:56:30;;;;;;;13.65;12.18;;;16.70;99.90;;;;;;4989736;28;20211;-82
2021/07/11 04:58:57;;;;;;;17.70;12.80;;;16.70;99.90;;;;;;4983116;28;20204;-84
2021/07/11 05:01:25;;;;;;;17.67;13.93;;;16.80;99.90;;;;;;4970863;28;20200;-86
2021/07/11 05:03:53;;;;;;;17.27;13.93;;;16.80;99.90;;;;;;4970733;28;20235;-84
2021/07/11 05:06:20;;;;;;;14.52;12.40;;;16.90;99.90;;;;;;4970157;28;20205;-85
2021/07/11 05:08:47;;;;;;;15.90;14.10;;;16.90;99.90;;;;;;4983348;28;20219;-84
2021/07/11 05:11:14;;;;;;;15.23;13.48;;;16.90;99.90;;;;;;4991424;28;20469;-85
2021/07/11 05:13:42;;;;;;;18.45;15.27;;;17.00;99.90;;;;;;4991189;28;20208;-85
2021/07/11 05:16:08;;;;;;;15.85;14.05;;;17.10;99.90;;;;;;4990574;28;20204;-85
2021/07/11 05:18:35;;;;;;;15.07;13.15;;;17.20;99.90;;;;;;4975578;28;20204;-86
2021/07/11 05:21:04;;;;;;;16.20;13.57;;;17.30;99.90;;;;;;4971110;28;20337;-85
2021/07/11 05:23:31;;;;;;;16.73;13.77;;;17.40;99.90;;;;;;4969471;28;20217;-82
2021/07/11 05:25:58;;;;;;;19.00;15.52;;;17.60;99.90;;;;;;4969686;28;20205;-84
2021/07/11 05:28:25;;;;;;;15.32;12.93;;;17.80;99.90;;;;;;4969314;28;20232;-83
2021/07/11 05:30:51;;;;;;;15.27;13.68;;;18.00;99.90;;;;;;4969895;28;20590;-82
2021/07/11 05:33:18;;;;;;;14.65;12.23;;;18.20;99.90;;;;;;4969705;28;20924;-84
2021/07/11 05:35:45;;;;;;;15.68;13.18;;;18.50;99.90;;;;;;4968003;28;20200;-83
2021/07/11 05:38:14;;;;;;;14.23;12.27;;;18.80;99.90;;;;;;4968599;28;20200;-81
2021/07/11 05:40:41;;;;;;;11.90;10.80;;;19.10;99.90;;;;;;4969750;28;20212;-85
2021/07/11 05:43:07;;;;;;;13.48;11.18;;;19.40;99.90;;;;;;4969814;28;20547;-85
2021/07/11 05:45:34;;;;;;;14.68;13.10;;;19.70;99.90;;;;;;4969352;28;20224;-86
2021/07/11 05:48:01;;;;;;;13.00;11.07;;;20.00;99.90;;;;;;4966645;28;20233;-83
2021/07/11 05:50:28;;;;;;;12.65;11.30;;;20.40;99.90;;;;;;5011466;22;20241;-84
2021/07/11 05:52:55;;;;;;;13.23;10.55;;;20.70;99.90;;;;;;5024773;28;20206;-84
2021/07/11 05:55:24;;;;;;;11.07;9.70;;;21.00;99.90;;;;;;5004957;28;20242;-84
2021/07/11 05:57:51;;;;;;;10.93;9.80;;;21.40;99.90;;;;;;5007031;28;20206;-84
2021/07/11 06:00:18;;;;;;;11.18;9.68;;;21.80;99.90;;;;;;5006877;28;20207;-83
2021/07/11 06:02:45;;;;;;;11.95;9.52;;;22.10;99.90;;;;;;5007586;28;20204;-84
2021/07/11 06:05:12;;;;;;;10.10;9.18;;;22.40;99.90;;;;;;5017435;28;20210;-84
2021/07/11 06:07:39;;;;;;;12.38;11.07;;;22.80;99.90;;;;;;5026479;28;20218;-85
2021/07/11 06:10:07;;;;;;;10.52;9.52;;;22.90;99.90;;;;;;5024636;28;20667;-84
2021/07/11 06:12:36;;;;;;;9.90;8.90;;;23.10;99.90;;;;;;5025790;28;20207;-84
2021/07/11 06:15:04;;;;;;;11.80;9.90;;;23.00;99.90;;;;;;5025437;28;20213;-84
2021/07/11 06:17:32;;;;;;;12.32;9.43;;;22.70;99.90;;;;;;5025422;28;20207;-83
2021/07/11 06:19:59;;;;;;;9.88;9.00;;;22.40;99.90;;;;;;5025337;28;20210;-85
2021/07/11 06:22:26;;;;;;;8.93;8.02;;;22.20;99.90;;;;;;5015017;28;20644;-83
2021/07/11 06:24:53;;;;;;;10.95;8.82;;;22.00;99.90;;;;;;5008113;28;20208;-84
2021/07/11 06:27:20;;;;;;;8.88;7.97;;;21.80;99.90;;;;;;5026864;28;20238;-84
2021/07/11 06:29:48;;;;;;;12.02;10.38;;;21.60;99.90;;;;;;5026305;28;20205;-85
2021/07/11 06:32:15;;;;;;;9.20;8.27;;;21.30;99.90;;;;;;5024711;28;20214;-84
2021/07/11 06:34:42;;;;;;;12.45;11.20;;;21.20;99.90;;;;;;5027991;28;20266;-84
2021/07/11 06:37:09;;;;;;;8.20;6.75;;;21.10;99.90;;;;;;5032992;28;20509;-83
2021/07/11 06:39:36;;;;;;;9.38;8.38;;;21.00;99.90;;;;;;5031977;28;20205;-83
2021/07/11 06:42:03;;;;;;;13.73;12.32;;;20.90;99.90;;;;;;5030252;28;20203;-83
2021/07/11 06:44:29;;;;;;;11.63;10.43;;;20.80;99.90;;;;;;5010110;28;20545;-84
2021/07/11 06:46:58;;;;;;;9.85;8.85;;;20.70;99.90;;;;;;5010118;28;20502;-82
2021/07/11 06:49:24;;;;;;;9.55;8.52;;;20.60;99.90;;;;;;5012031;28;20694;-83
2021/07/11 06:51:51;;;;;;;9.57;8.68;;;20.50;99.90;;;;;;5029296;28;20236;-84
2021/07/11 06:54:18;;;;;;;13.70;11.30;;;20.50;99.90;;;;;;5010612;28;20203;-84
2021/07/11 06:56:45;;;;;;;10.95;9.85;;;20.40;99.90;;;;;;5011415;28;20488;-85
2021/07/11 06:59:11;;;;;;;9.52;8.57;;;20.40;99.90;;;;;;5030421;28;20396;-86
2021/07/11 07:01:38;;;;;;;11.70;10.48;;;20.30;99.90;;;;;;5030622;28;20748;-85
2021/07/11 07:04:07;;;;;;;14.32;12.80;;;20.30;99.90;;;;;;5030480;28;20203;-87
2021/07/11 07:06:33;;;;;;;14.82;13.32;;;20.10;99.90;;;;;;5028164;28;20225;-84
2021/07/11 07:09:00;;;;;;;11.32;10.20;;;20.00;99.90;;;;;;5029254;28;20598;-83
2021/07/11 07:11:27;;;;;;;12.85;11.60;;;19.90;99.90;;;;;;5030215;28;20222;-85
2021/07/11 07:13:54;;;;;;;12.25;11.05;;;19.90;99.90;;;;;;5018764;28;20199;-84
2021/07/11 07:16:21;;;;;;;11.45;10.27;;;19.90;99.90;;;;;;5009754;28;20191;-84
2021/07/11 07:18:47;;;;;;;11.35;10.25;;;19.90;99.90;;;;;;5010763;28;20560;-85
2021/07/11 07:21:16;;;;;;;12.27;11.02;;;20.00;99.90;;;;;;5010553;28;20350;-84
2021/07/11 07:23:44;;;;;;;10.82;9.70;;;19.90;99.90;;;;;;5010663;28;20223;-84
2021/07/11 07:26:11;;;;;;;11.68;10.48;;;20.00;99.90;;;;;;5010476;28;20584;-84
2021/07/11 07:28:38;;;;;;;14.30;9.88;;;20.00;99.90;;;;;;5010327;28;20219;-86
2021/07/11 07:31:04;;;;;;;11.70;9.98;;;20.00;99.90;;;;;;5010655;28;20206;-86
2021/07/11 07:33:31;;;;;;;9.73;8.73;;;20.00;99.90;;;;;;5010111;28;20543;-85
2021/07/11 07:35:58;;;;;;;8.45;7.55;;;19.90;99.90;;;;;;5006613;28;20199;-86
2021/07/11 07:38:26;;;;;;;9.70;8.70;;;19.90;99.90;;;;;;5007098;28;20208;-85
2021/07/11 07:40:53;;;;;;;10.63;9.63;;;19.90;99.90;;;;;;5009417;28;20231;-86
2021/07/11 07:43:20;;;;;;;8.48;7.65;;;19.90;99.90;;;;;;5010808;28;20231;-84
2021/07/11 07:45:47;;;;;;;11.07;8.88;;;19.90;99.90;;;;;;5014828;28;20219;-85
2021/07/11 07:48:14;;;;;;;9.13;8.23;;;19.90;99.90;;;;;;5016613;28;20227;-86
2021/07/11 07:50:42;;;;;;;7.15;6.45;;;19.90;99.90;;;;;;5012764;28;20245;-86
2021/07/11 07:53:09;;;;;;;11.20;10.00;;;20.00;99.90;;;;;;5012806;28;20195;-86
2021/07/11 07:55:37;;;;;;;10.65;9.60;;;20.00;99.90;;;;;;5012301;28;20211;-85
2021/07/11 07:58:04;;;;;;;11.20;10.15;;;20.00;99.90;;;;;;5011038;28;20203;-85
2021/07/11 08:00:31;;;;;;;12.70;11.35;;;20.00;99.90;;;;;;5010695;28;20205;-84
2021/07/11 08:02:59;;;;;;;11.10;10.02;;;20.00;99.90;;;;;;5021746;28;20207;-85
2021/07/11 08:05:26;;;;;;;11.02;9.93;;;20.10;99.90;;;;;;5029958;28;20321;-84
2021/07/11 08:07:53;;;;;;;13.02;11.68;;;20.20;99.90;;;;;;5029274;28;20237;-84
2021/07/11 08:10:20;;;;;;;13.05;11.75;;;20.20;99.90;;;;;;5014631;28;20207;-85
2021/07/11 08:12:48;;;;;;;11.80;10.60;;;20.30;99.90;;;;;;5009573;28;20203;-84
2021/07/11 08:15:17;;;;;;;13.48;12.18;;;20.40;99.90;;;;;;5008338;28;20207;-85
2021/07/11 08:17:45;;;;;;;11.43;10.25;;;20.50;99.90;;;;;;5009891;28;20490;-85
2021/07/11 08:20:13;;;;;;;14.45;12.55;;;20.50;99.90;;;;;;5007674;28;20290;-84
2021/07/11 08:22:40;;;;;;;12.85;11.57;;;20.60;99.90;;;;;;5008669;28;20202;-85
2021/07/11 08:25:08;;;;;;;14.48;12.55;;;20.70;99.90;;;;;;5008143;28;20592;-86
2021/07/11 08:27:36;;;;;;;13.00;10.60;;;20.70;99.90;;;;;;5008969;28;20206;-84
2021/07/11 08:30:04;;;;;;;13.95;12.55;;;20.60;99.90;;;;;;5007319;28;20211;-84
2021/07/11 08:32:31;;;;;;;15.48;13.23;;;20.70;99.90;;;;;;5008401;28;20191;-85
2021/07/11 08:34:58;;;;;;;12.43;10.85;;;20.70;99.90;;;;;;5008695;28;20203;-85
2021/07/11 08:37:25;;;;;;;15.02;13.43;;;20.70;99.90;;;;;;5008179;28;20214;-86
2021/07/11 08:39:52;;;;;;;13.52;12.23;;;20.70;99.90;;;;;;5008833;28;20202;-84
2021/07/11 08:42:23;;;;;;;13.07;11.10;;;20.70;99.90;;;;;;5008485;28;20294;-85
2021/07/11 08:44:50;;;;;;;14.48;13.02;;;20.70;99.90;;;;;;5008978;28;20226;-83
2021/07/11 08:47:19;;;;;;;13.05;11.75;;;20.80;99.90;;;;;;5008866;28;20211;-84
2021/07/11 08:49:46;;;;;;;15.55;13.95;;;20.70;99.90;;;;;;5008513;28;20231;-85
2021/07/11 08:52:13;;;;;;;11.60;10.50;;;20.70;99.90;;;;;;5007981;28;20717;-85
2021/07/11 08:54:40;;;;;;;11.35;10.15;;;20.70;99.90;;;;;;5008728;28;20479;-85
2021/07/11 08:57:10;;;;;;;15.30;13.65;;;20.80;99.90;;;;;;5006301;28;20199;-85
2021/07/11 08:59:37;;;;;;;13.30;11.93;;;20.90;99.90;;;;;;5006559;28;20207;-83
2021/07/11 09:02:04;;;;;;;14.77;13.38;;;20.80;99.90;;;;;;5004603;28;20196;-86
2021/07/11 09:04:40;;;;;;;14.80;13.27;;;20.80;99.90;;;;;;5011852;28;20215;-82
2021/07/11 09:07:08;;;;;;;14.95;12.95;;;20.80;99.90;;;;;;5012339;28;20626;-83
2021/07/11 09:09:36;;;;;;;14.85;13.20;;;20.80;99.90;;;;;;5011232;28;20219;-83
2021/07/11 09:12:06;;;;;;;15.95;14.07;;;20.70;99.90;;;;;;5005173;28;20203;-82
2021/07/11 09:14:35;;;;;;;12.90;11.60;;;20.70;99.90;;;;;;5005350;28;20207;-81
2021/07/11 09:17:03;;;;;;;14.73;13.23;;;20.70;99.90;;;;;;5003801;28;20227;-82
2021/07/11 09:19:33;;;;;;;15.02;13.43;;;20.60;99.90;;;;;;5003291;28;20206;-82
2021/07/11 09:22:04;;;;;;;15.55;12.85;;;20.50;99.90;;;;;;5003381;28;20302;-84
2021/07/11 09:24:33;;;;;;;14.45;12.95;;;20.50;99.90;;;;;;5003626;28;20207;-82
2021/07/11 09:27:10;;;;;;;16.25;14.35;;;20.40;99.90;;;;;;5011165;28;20489;-82
2021/07/11 09:29:38;;;;;;;14.82;13.13;;;20.40;99.90;;;;;;5024271;28;20700;-84
2021/07/11 09:32:06;;;;;;;16.15;12.88;;;20.30;99.90;;;;;;5035265;28;20213;-82
2021/07/11 09:34:34;;;;;;;13.75;10.60;;;20.30;99.90;;;;;;5037841;28;20194;-83
2021/07/11 09:37:11;;;;;;;11.48;10.23;;;20.20;99.90;;;;;;5014111;28;20213;-83
2021/07/11 09:39:47;;;;;;;14.75;11.35;;;20.10;99.90;;;;;;5016589;28;20298;-83
2021/07/11 09:42:25;;;;;;;14.63;12.55;;;20.10;99.90;;;;;;5004779;28;20179;-82
2021/07/11 09:44:52;;;;;;;15.43;13.52;;;20.00;99.90;;;;;;5005141;28;20222;-82
2021/07/11 09:47:20;;;;;;;14.35;12.77;;;20.00;99.90;;;;;;5005319;28;20214;-82
2021/07/11 09:49:58;;;;;;;16.02;14.38;;;20.00;99.90;;;;;;5005165;28;20250;-83
2021/07/11 09:52:27;;;;;;;18.52;15.50;;;19.90;99.90;;;;;;5004699;28;20697;-82
2021/07/11 09:54:55;;;;;;;19.50;15.82;;;19.90;99.90;;;;;;5003158;28;20532;-81
2021/07/11 09:57:31;;;;;;;15.02;13.23;;;19.90;99.90;;;;;;5003047;28;20558;-81
2021/07/11 10:00:05;;;;;;;16.48;14.38;;;19.70;99.90;;;;;;5002584;28;20210;-81
2021/07/11 10:02:32;;;;;;;18.80;15.45;;;19.70;99.90;;;;;;5002607;28;20242;-81
2021/07/11 10:04:59;;;;;;;16.88;14.60;;;19.60;99.90;;;;;;5001653;28;20242;-81
2021/07/11 10:07:28;;;;;;;22.08;18.45;;;19.60;99.90;;;;;;5001590;28;20653;-80
2021/07/11 10:09:55;;;;;;;18.20;16.30;;;19.60;99.90;;;;;;5003885;28;20526;-81
2021/07/11 10:12:21;;;;;;;20.30;18.10;;;19.60;99.90;;;;;;5005669;28;20310;-80
2021/07/11 10:14:48;;;;;;;18.98;16.55;;;19.60;99.90;;;;;;5005235;28;20880;-80
2021/07/11 10:17:18;;;;;;;20.80;17.63;;;19.70;99.90;;;;;;5031632;28;20657;-80
2021/07/11 10:19:48;;;;;;;18.60;16.70;;;19.70;99.90;;;;;;5044802;28;20206;-81
2021/07/11 10:22:16;;;;;;;21.15;18.15;;;19.90;99.90;;;;;;5006391;28;20722;-80
2021/07/11 10:24:47;;;;;;;18.55;16.63;;;20.00;99.90;;;;;;5020178;28;20183;-82
2021/07/11 10:27:26;;;;;;;21.65;18.30;;;20.10;99.90;;;;;;5006294;28;20206;-83
2021/07/11 10:29:55;;;;;;;20.63;18.40;;;20.20;99.90;;;;;;5005515;28;20211;-82
2021/07/11 10:32:25;;;;;;;19.77;16.90;;;20.40;99.90;;;;;;5006097;28;20218;-81
2021/07/11 10:34:52;;;;;;;18.85;16.63;;;20.60;99.90;;;;;;5005465;28;20616;-80
2021/07/11 10:37:22;;;;;;;22.60;17.00;;;20.90;99.90;;;;;;5004976;28;20582;-79
2021/07/11 10:40:06;;;;;;;18.65;16.75;;;21.30;99.90;;;;;;5005854;28;20218;-80
2021/07/11 10:42:33;;;;;;;17.00;15.18;;;21.80;99.90;;;;;;5005487;28;20227;-80
2021/07/11 10:45:09;;;;;;;16.75;15.05;;;22.20;99.90;;;;;;5018907;28;20226;-80
2021/07/11 10:47:36;;;;;;;16.02;14.27;;;22.60;99.90;;;;;;5025792;28;20203;-80
2021/07/11 10:50:08;;;;;;;15.63;14.05;;;22.70;99.90;;;;;;5023559;28;20242;-81
2021/07/11 10:52:40;;;;;;;16.63;14.40;;;22.80;99.90;;;;;;5008515;28;20230;-81
2021/07/11 10:55:11;;;;;;;14.02;12.57;;;22.70;99.90;;;;;;5005247;28;20202;-80
2021/07/11 10:57:39;;;;;;;15.02;11.80;;;22.90;99.90;;;;;;5005129;28;20242;-80
2021/07/11 11:00:11;;;;;;;13.07;11.27;;;23.10;99.90;;;;;;5004777;28;20214;-81
2021/07/11 11:02:38;;;;;;;13.45;12.20;;;23.30;99.90;;;;;;5004973;28;20207;-81
2021/07/11 11:05:12;;;;;;;15.10;13.60;;;23.40;99.90;;;;;;5012965;28;20207;-82
2021/07/11 11:07:44;;;;;;;15.25;13.65;;;23.50;99.90;;;;;;5024572;28;20222;-82
2021/07/11 11:10:30;;;;;;;14.85;13.32;;;23.70;99.90;;;;;;5022131;28;20227;-80
2021/07/11 11:13:02;;;;;;;13.05;11.75;;;23.80;99.90;;;;;;5004010;28;20188;-82
2021/07/11 11:15:38;;;;;;;15.65;14.15;;;24.10;99.90;;;;;;5004938;28;20619;-81
2021/07/11 11:18:19;;;;;;;15.45;13.40;;;24.30;99.90;;;;;;5004599;28;20226;-83
2021/07/11 11:20:51;;;;;;;12.50;11.30;;;24.30;99.90;;;;;;5004070;28;20207;-80
2021/07/11 11:23:17;;;;;;;14.02;12.60;;;24.30;99.90;;;;;;5003766;28;20222;-79
2021/07/11 11:25:47;;;;;;;16.70;15.00;;;24.20;99.90;;;;;;5005022;28;20212;-79
2021/07/11 11:28:14;;;;;;;16.85;15.02;;;24.30;99.90;;;;;;5018908;28;20214;-80
2021/07/11 11:30:42;;;;;;;14.32;12.93;;;24.50;99.90;;;;;;5024375;28;20229;-77
2021/07/11 11:33:08;;;;;;;16.20;14.63;;;24.50;99.90;;;;;;5025565;28;20211;-83
2021/07/11 11:35:36;;;;;;;17.83;16.02;;;24.50;99.90;;;;;;5010233;28;20330;-81
2021/07/11 11:38:05;;;;;;;15.82;14.23;;;24.30;99.90;;;;;;5006575;28;20222;-79
2021/07/11 11:40:35;;;;;;;17.02;15.23;;;24.30;99.90;;;;;;5004732;28;20203;-81
2021/07/11 11:43:05;;;;;;;18.23;16.45;;;24.10;99.90;;;;;;5004816;28;20214;-81
2021/07/11 11:45:34;;;;;;;15.18;13.77;;;24.00;99.90;;;;;;5007897;28;20231;-80
2021/07/11 11:48:03;;;;;;;17.17;15.45;;;24.20;99.90;;;;;;5023560;28;20191;-78
2021/07/11 11:50:31;;;;;;;15.30;13.88;;;24.40;99.90;;;;;;5023997;28;20234;-82
2021/07/11 11:53:10;;;;;;;16.88;15.18;;;24.50;99.90;;;;;;5023328;28;20218;-80
2021/07/11 11:55:38;;;;;;;16.95;15.25;;;24.70;99.90;;;;;;5020827;28;20217;-80
2021/07/11 11:58:08;;;;;;;17.25;15.57;;;25.00;99.90;;;;;;5020849;28;20622;-79
2021/07/11 12:00:36;;;;;;;17.50;15.70;;;25.00;99.90;;;;;;5023647;28;20203;-81
2021/07/11 12:03:05;;;;;;;16.73;15.02;;;25.00;99.90;;;;;;5022838;28;20207;-79
2021/07/11 12:05:34;;;;;;;15.10;13.65;;;25.00;99.90;;;;;;5024224;28;20249;-80
2021/07/11 12:08:02;;;;;;;17.48;15.68;;;25.10;99.90;;;;;;5026643;28;20222;-81
2021/07/11 12:10:30;;;;;;;16.15;14.60;;;25.30;99.90;;;;;;5027217;28;20226;-81
2021/07/11 12:12:59;;;;;;;14.02;12.52;;;25.30;99.90;;;;;;5027039;28;20208;-84
2021/07/11 12:15:36;;;;;;;17.33;15.60;;;25.30;99.90;;;;;;5010122;28;20211;-84
2021/07/11 12:18:06;;;;;;;12.57;11.27;;;25.20;99.90;;;;;;5016498;28;20206;-83
2021/07/11 12:20:34;;;;;;;14.40;12.88;;;25.00;99.90;;;;;;5027598;28;20648;-81
2021/07/11 12:23:03;;;;;;;11.20;9.75;;;24.90;99.90;;;;;;5027224;28;20214;-83
2021/07/11 12:25:32;;;;;;;16.30;14.70;;;25.00;99.90;;;;;;5026055;28;20206;-84
2021/07/11 12:28:01;;;;;;;15.48;14.02;;;25.10;99.90;;;;;;5027672;28;20209;-84
2021/07/11 12:30:41;;;;;;;14.75;12.98;;;25.00;99.90;;;;;;5026336;28;20313;-85
2021/07/11 12:33:09;;;;;;;13.02;11.82;;;25.10;99.90;;;;;;5023584;28;20194;-83
2021/07/11 12:35:44;;;;;;;13.70;12.30;;;25.30;99.90;;;;;;5006252;28;20207;-82
2021/07/11 12:38:11;;;;;;;13.40;11.98;;;25.40;99.90;;;;;;5004470;28;20210;-82